Time;durP1;ratioP1;P1;durP2;ratioP2;P2;SDS_P1;SDS_P2;PMS_P1;PMS_P2;Temp;Humidity;BMP_temperature;BMP_pressure;BME280_temperature;BME280_humidity;BME280_pressure;Samples;Min_cycle;Max_cycle;Signal;HPM_P1;HPM_P2
2024/01/16 00:00:12;;;;;;;21.52;12.25;;;;;;;-0.27;93.15;97453.66;5124451;28;20016;-79
2024/01/16 00:02:38;;;;;;;20.40;10.85;;;;;;;-0.56;93.81;97436.75;5107870;28;20059;-79
2024/01/16 00:05:04;;;;;;;43.63;18.15;;;;;;;-0.68;94.43;97420.13;5107887;28;20020;-78
2024/01/16 00:07:29;;;;;;;54.03;19.75;;;;;;;-0.94;95.48;97395.03;5101572;28;20059;-79
2024/01/16 00:09:55;;;;;;;30.30;15.00;;;;;;;-0.63;95.72;97474.75;5114153;28;20486;-79
2024/01/16 00:12:20;;;;;;;47.53;15.85;;;;;;;-0.58;95.87;97470.84;5128510;28;20125;-78
2024/01/16 00:14:46;;;;;;;94.10;26.77;;;;;;;-0.74;95.92;97468.59;5110452;28;20418;-78
2024/01/16 00:17:11;;;;;;;79.68;24.58;;;;;;;-0.79;96.71;97454.66;5118487;28;20111;-78
2024/01/16 00:19:37;;;;;;;82.53;26.50;;;;;;;-1.02;96.90;97428.75;5114444;28;20034;-78
2024/01/16 00:22:04;;;;;;;105.25;29.00;;;;;;;-0.86;97.38;97448.09;5118194;28;20495;-79
2024/01/16 00:24:30;;;;;;;79.95;23.63;;;;;;;-0.64;97.26;97453.44;5107567;28;20020;-78
2024/01/16 00:26:55;;;;;;;56.08;19.30;;;;;;;-0.72;96.92;97417.41;5107361;28;20038;-78
2024/01/16 00:29:21;;;;;;;31.08;14.98;;;;;;;-0.44;96.61;97457.25;5108378;28;20020;-79
2024/01/16 00:31:47;;;;;;;30.00;14.15;;;;;;;-1.19;96.19;97337.44;5108768;28;20020;-80
2024/01/16 00:34:12;;;;;;;28.52;14.18;;;;;;;-0.94;96.29;97375.28;5108427;28;20125;-79
2024/01/16 00:36:38;;;;;;;34.38;14.60;;;;;;;-0.73;96.12;97401.56;5118672;28;20023;-78
2024/01/16 00:39:03;;;;;;;37.78;15.55;;;;;;;-0.93;96.39;97366.00;5113367;28;20031;-78
2024/01/16 00:41:29;;;;;;;37.15;14.65;;;;;;;-0.70;97.74;97392.63;5117834;28;20031;-79
2024/01/16 00:43:54;;;;;;;30.55;14.18;;;;;;;-0.78;97.80;97389.16;5120808;28;20031;-78
2024/01/16 00:46:20;;;;;;;31.55;13.98;;;;;;;-0.75;98.04;97395.75;5114557;28;20054;-78
2024/01/16 00:48:46;;;;;;;33.38;14.10;;;;;;;-0.47;97.21;97434.38;5106817;28;20032;-79
2024/01/16 00:51:11;;;;;;;24.10;12.18;;;;;;;-0.85;96.92;97360.16;5107007;28;20110;-77
2024/01/16 00:53:43;;;;;;;24.60;11.40;;;;;;;-0.39;95.11;97405.28;5107446;28;20091;-78
2024/01/16 00:56:09;;;;;;;22.92;10.65;;;;;;;-0.51;94.52;97397.59;5106998;28;20518;-79
2024/01/16 00:58:35;;;;;;;23.13;9.98;;;;;;;-0.37;94.22;97462.66;5086311;28;20039;-78
2024/01/16 01:01:01;;;;;;;20.58;9.68;;;;;;;-0.91;94.81;97380.72;5096955;28;20023;-79
2024/01/16 01:03:26;;;;;;;23.00;10.63;;;;;;;-0.73;95.54;97393.44;5106716;28;20454;-81
2024/01/16 01:05:52;;;;;;;29.77;13.25;;;;;;;-0.85;95.92;97414.41;5098105;28;20020;-79
2024/01/16 01:08:17;;;;;;;20.20;10.10;;;;;;;-0.85;96.65;97403.53;5093953;28;20567;-80
2024/01/16 01:10:43;;;;;;;21.83;11.82;;;;;;;-1.30;98.03;97364.56;5094465;28;20039;-79
2024/01/16 01:13:08;;;;;;;25.58;12.50;;;;;;;-1.07;98.46;97369.53;5092988;28;20028;-79
2024/01/16 01:15:34;;;;;;;25.42;11.48;;;;;;;-0.80;98.42;97388.03;5093249;28;20499;-80
2024/01/16 01:17:59;;;;;;;27.88;12.93;;;;;;;-0.55;98.65;97392.19;5092711;28;20089;-80
2024/01/16 01:20:25;;;;;;;20.92;10.38;;;;;;;-0.38;98.94;97379.69;5092676;28;20404;-79
2024/01/16 01:22:51;;;;;;;23.20;10.88;;;;;;;-0.07;97.27;97367.88;5092639;28;20031;-78
2024/01/16 01:25:16;;;;;;;19.08;10.13;;;;;;;0.33;94.85;97396.28;5092607;28;20028;-79
2024/01/16 01:27:42;;;;;;;23.35;10.25;;;;;;;0.44;93.75;97388.03;5093949;28;20491;-79
2024/01/16 01:30:11;;;;;;;22.05;9.85;;;;;;;0.49;92.88;97378.66;5092961;28;20475;-79
2024/01/16 01:32:37;;;;;;;20.52;9.05;;;;;;;0.70;91.26;97378.47;5092789;28;20488;-78
2024/01/16 01:35:04;;;;;;;19.88;10.40;;;;;;;1.03;90.53;97429.41;5092380;28;20110;-79
2024/01/16 01:37:30;;;;;;;17.65;9.48;;;;;;;0.47;88.80;97294.09;5093512;28;20032;-78
2024/01/16 01:39:55;;;;;;;23.35;10.18;;;;;;;0.68;87.75;97321.03;5092676;28;20082;-78
2024/01/16 01:42:20;;;;;;;38.03;14.38;;;;;;;1.15;87.46;97392.75;5093563;28;20021;-78
2024/01/16 01:44:47;;;;;;;35.83;15.27;;;;;;;1.12;87.55;97385.41;5092407;28;20027;-79
2024/01/16 01:47:13;;;;;;;26.50;12.80;;;;;;;0.99;87.25;97365.34;5092322;28;20039;-78
2024/01/16 01:49:40;;;;;;;20.38;10.18;;;;;;;1.05;87.51;97366.44;5093425;28;20024;-80
2024/01/16 01:52:06;;;;;;;24.88;11.30;;;;;;;0.94;88.28;97354.94;5091873;28;20491;-78
2024/01/16 01:54:35;;;;;;;23.23;10.95;;;;;;;1.32;88.66;97399.97;5093181;28;20052;-78
2024/01/16 01:57:01;;;;;;;20.02;10.77;;;;;;;1.13;88.79;97376.84;5092170;28;20028;-79
2024/01/16 01:59:27;;;;;;;24.45;10.95;;;;;;;1.25;88.49;97402.75;5093489;28;20053;-79
2024/01/16 02:01:54;;;;;;;25.25;10.80;;;;;;;1.33;88.37;97389.81;5091865;28;20016;-80
2024/01/16 02:04:21;;;;;;;24.65;11.85;;;;;;;1.61;88.77;97420.19;5093177;28;20525;-79
2024/01/16 02:06:47;;;;;;;22.38;10.57;;;;;;;1.25;87.85;97358.47;5091539;28;20012;-79
2024/01/16 02:09:13;;;;;;;17.70;9.07;;;;;;;1.60;86.61;97393.38;5091834;28;20034;-78
2024/01/16 02:11:42;;;;;;;20.48;10.63;;;;;;;1.85;86.57;97414.84;5091619;28;20024;-79
2024/01/16 02:14:09;;;;;;;19.00;9.93;;;;;;;1.73;85.90;97385.44;5093228;28;20089;-78
2024/01/16 02:16:39;;;;;;;22.48;9.23;;;;;;;1.63;85.75;97363.38;5090972;28;20028;-80
2024/01/16 02:19:06;;;;;;;15.20;7.88;;;;;;;1.69;85.37;97371.84;5091347;28;20066;-79
2024/01/16 02:21:38;;;;;;;15.20;7.88;;;;;;;1.48;84.81;97336.78;5091788;28;20077;-79
2024/01/16 02:24:05;;;;;;;13.35;6.93;;;;;;;1.80;85.72;97398.97;5091745;28;20166;-79
2024/01/16 02:26:31;;;;;;;17.88;8.25;;;;;;;1.92;85.03;97403.84;5091452;28;20480;-79
2024/01/16 02:28:57;;;;;;;15.95;7.45;;;;;;;1.66;84.64;97361.03;5091457;28;20032;-79
2024/01/16 02:31:22;;;;;;;15.82;8.88;;;;;;;1.73;83.92;97339.16;5091529;28;20031;-81
2024/01/16 02:33:48;;;;;;;16.38;8.60;;;;;;;1.94;84.47;97360.63;5092669;28;20503;-78
2024/01/16 02:36:13;;;;;;;16.80;8.95;;;;;;;1.90;83.79;97365.34;5092756;28;20020;-79
2024/01/16 02:38:39;;;;;;;16.00;8.75;;;;;;;1.74;83.54;97352.38;5091446;28;20047;-79
2024/01/16 02:41:05;;;;;;;14.50;7.88;;;;;;;1.69;84.59;97357.50;5091081;28;20036;-78
2024/01/16 02:43:31;;;;;;;15.90;8.75;;;;;;;1.83;84.23;97373.63;5091293;28;20065;-80
2024/01/16 02:45:57;;;;;;;16.83;8.27;;;;;;;1.88;83.57;97379.38;5091053;28;20020;-78
2024/01/16 02:48:23;;;;;;;17.90;9.25;;;;;;;2.04;83.82;97398.59;5091397;28;20020;-78
2024/01/16 02:50:48;;;;;;;17.02;9.65;;;;;;;1.94;84.19;97424.03;5092787;28;20024;-79
2024/01/16 02:53:14;;;;;;;20.92;10.23;;;;;;;1.77;84.57;97427.00;5090640;28;20031;-78
2024/01/16 02:55:39;;;;;;;20.92;10.38;;;;;;;1.84;84.64;97411.34;5091984;28;20061;-78
2024/01/16 02:58:05;;;;;;;15.90;8.80;;;;;;;1.70;84.00;97416.19;5077908;28;20036;-80
2024/01/16 03:00:31;;;;;;;17.92;8.95;;;;;;;1.75;82.98;97429.38;5092229;28;20103;-79
2024/01/16 03:02:56;;;;;;;18.40;8.10;;;;;;;1.48;84.14;97423.84;5092186;28;20169;-79
2024/01/16 03:05:21;;;;;;;17.65;8.38;;;;;;;1.36;85.52;97441.50;5092435;28;20709;-78
2024/01/16 03:07:47;;;;;;;13.60;7.93;;;;;;;1.47;88.00;97438.63;5077907;28;20116;-80
2024/01/16 03:10:12;;;;;;;15.75;7.78;;;;;;;1.36;88.13;97397.19;5090968;28;20020;-80
2024/01/16 03:12:38;;;;;;;14.95;7.15;;;;;;;1.57;87.76;97405.84;5090712;28;20045;-78
2024/01/16 03:15:04;;;;;;;13.82;6.90;;;;;;;1.72;87.27;97417.34;5090582;28;20024;-78
2024/01/16 03:17:30;;;;;;;12.43;6.38;;;;;;;1.63;86.08;97374.25;5091772;28;20035;-78
2024/01/16 03:19:56;;;;;;;12.00;6.43;;;;;;;1.83;84.50;97357.28;5090407;28;20028;-78
2024/01/16 03:22:22;;;;;;;11.48;5.22;;;;;;;2.14;83.55;97377.81;5091918;28;20081;-79
2024/01/16 03:24:48;;;;;;;14.57;6.10;;;;;;;2.11;82.62;97337.78;5091869;28;20016;-80
2024/01/16 03:27:14;;;;;;;10.65;5.78;;;;;;;2.50;82.01;97413.47;5090696;28;20020;-79
2024/01/16 03:29:39;;;;;;;11.15;5.95;;;;;;;2.68;80.86;97413.16;5090347;28;20082;-78
2024/01/16 03:32:05;;;;;;;11.25;6.05;;;;;;;2.79;80.16;97438.31;5069857;28;20470;-79
2024/01/16 03:34:31;;;;;;;13.55;6.28;;;;;;;2.37;79.16;97358.00;5088908;28;20020;-78
2024/01/16 03:36:57;;;;;;;10.23;5.70;;;;;;;2.56;78.55;97373.63;5090414;28;20027;-79
2024/01/16 03:39:22;;;;;;;11.82;6.10;;;;;;;2.73;77.93;97388.16;5090277;28;20411;-79
2024/01/16 03:41:48;;;;;;;14.60;7.40;;;;;;;2.92;78.79;97430.28;5091600;28;20111;-78
2024/01/16 03:44:13;;;;;;;13.90;6.47;;;;;;;2.98;78.03;97426.66;5090270;28;20024;-78
2024/01/16 03:46:39;;;;;;;9.15;6.18;;;;;;;2.59;77.59;97391.91;5090010;28;20032;-78
2024/01/16 03:49:04;;;;;;;47.47;15.43;;;;;;;2.56;77.96;97400.13;5090629;28;20027;-79
2024/01/16 03:51:30;;;;;;;42.65;15.50;;;;;;;2.76;78.71;97448.09;5091737;28;20555;-78
2024/01/16 03:53:55;;;;;;;27.52;11.73;;;;;;;2.88;78.71;97457.66;5091320;28;20067;-78
2024/01/16 03:56:22;;;;;;;28.10;12.30;;;;;;;2.70;79.22;97432.63;5090228;28;20415;-78
2024/01/16 03:58:47;;;;;;;50.45;21.02;;;;;;;2.45;79.20;97403.81;5090014;28;20403;-78
2024/01/16 04:01:14;;;;;;;39.90;18.40;;;;;;;2.81;80.02;97439.44;5078365;28;20032;-78
2024/01/16 04:03:40;;;;;;;21.98;11.10;;;;;;;3.17;81.07;97491.44;5088510;28;20442;-79
2024/01/16 04:06:18;;;;;;;40.40;24.88;;;;;;;3.10;81.59;97468.94;5091242;28;20024;-78
2024/01/16 04:08:45;;;;;;;37.70;20.10;;;;;;;3.21;81.59;97483.94;5090326;28;20112;-78
2024/01/16 04:11:14;;;;;;;17.42;11.25;;;;;;;3.34;81.83;97491.53;5091148;28;20023;-80
2024/01/16 04:13:40;;;;;;;13.88;9.10;;;;;;;3.01;80.75;97441.44;5091456;28;20404;-78
2024/01/16 04:16:06;;;;;;;16.02;8.77;;;;;;;3.38;80.99;97514.06;5089899;28;20028;-79
2024/01/16 04:18:39;;;;;;;19.42;10.35;;;;;;;3.18;80.92;97479.34;5090214;28;20016;-78
2024/01/16 04:21:04;;;;;;;15.05;7.72;;;;;;;3.13;80.38;97492.69;5089666;28;20040;-78
2024/01/16 04:23:30;;;;;;;18.35;10.45;;;;;;;2.93;81.03;97503.53;5091272;28;20101;-79
2024/01/16 04:25:55;;;;;;;19.98;11.25;;;;;;;3.13;81.67;97519.97;5089915;28;20411;-78
2024/01/16 04:28:21;;;;;;;24.30;11.75;;;;;;;2.91;81.09;97477.84;5091026;28;20027;-79
2024/01/16 04:30:46;;;;;;;19.48;11.32;;;;;;;3.25;80.72;97533.78;5091147;28;20032;-78
2024/01/16 04:33:11;;;;;;;28.70;14.57;;;;;;;3.21;80.36;97524.88;5091249;28;20545;-78
2024/01/16 04:35:37;;;;;;;19.52;11.32;;;;;;;3.37;80.41;97543.34;5090739;28;20039;-78
2024/01/16 04:38:03;;;;;;;14.20;7.88;;;;;;;3.41;80.84;97552.22;5090998;28;20019;-78
2024/01/16 04:40:28;;;;;;;13.93;6.43;;;;;;;3.25;80.25;97527.56;5091761;28;20048;-79
2024/01/16 04:42:54;;;;;;;20.58;12.15;;;;;;;3.74;79.16;97598.88;5093561;28;20012;-78
2024/01/16 04:45:19;;;;;;;17.67;9.40;;;;;;;3.67;79.46;97588.84;5094784;28;20024;-79
2024/01/16 04:47:45;;;;;;;16.98;8.57;;;;;;;3.23;80.16;97525.25;5093429;28;20020;-81
2024/01/16 04:50:10;;;;;;;12.45;6.20;;;;;;;3.50;80.30;97582.47;5093444;28;20051;-80
2024/01/16 04:52:36;;;;;;;12.32;6.97;;;;;;;2.67;80.57;97486.03;5094446;28;20055;-80
2024/01/16 04:55:01;;;;;;;16.23;7.95;;;;;;;3.34;81.64;97606.94;5094257;28;20048;-79
2024/01/16 04:57:27;;;;;;;15.15;7.30;;;;;;;3.39;81.51;97608.41;5093017;28;20564;-78
2024/01/16 04:59:52;;;;;;;14.00;7.93;;;;;;;3.11;82.28;97593.28;5093084;28;20032;-77
2024/01/16 05:02:18;;;;;;;11.45;6.35;;;;;;;2.93;82.91;97562.78;5093120;28;20024;-78
2024/01/16 05:04:44;;;;;;;12.38;6.85;;;;;;;3.30;83.42;97605.47;5094355;28;20028;-78
2024/01/16 05:07:09;;;;;;;14.80;6.15;;;;;;;3.26;82.12;97589.13;5094470;28;20503;-77
2024/01/16 05:09:35;;;;;;;16.98;9.43;;;;;;;4.03;84.03;97663.50;5093169;28;20032;-79
2024/01/16 05:12:00;;;;;;;35.50;19.23;;;;;;;3.89;82.30;97652.06;5092978;28;20503;-79
2024/01/16 05:14:26;;;;;;;22.30;12.10;;;;;;;3.57;82.73;97611.63;5092291;28;20475;-79
2024/01/16 05:16:52;;;;;;;26.17;14.23;;;;;;;3.61;84.59;97604.16;5094179;28;20019;-79
2024/01/16 05:19:18;;;;;;;17.60;8.90;;;;;;;3.78;84.78;97624.94;5092516;28;20028;-80
2024/01/16 05:21:43;;;;;;;13.98;7.97;;;;;;;4.03;87.14;97663.50;5092694;28;20475;-80
2024/01/16 05:24:09;;;;;;;25.38;13.30;;;;;;;4.21;86.69;97676.84;5092507;28;20062;-80
2024/01/16 05:26:35;;;;;;;19.70;10.65;;;;;;;3.95;90.29;97650.38;5085321;28;20029;-79
2024/01/16 05:29:00;;;;;;;15.35;9.20;;;;;;;3.80;93.06;97638.91;5087958;28;20077;-80
2024/01/16 05:31:26;;;;;;;15.27;8.35;;;;;;;3.69;95.50;97617.25;5093910;28;20070;-81
2024/01/16 05:33:51;;;;;;;11.35;6.53;;;;;;;4.16;95.60;97662.91;5092450;28;20031;-80
2024/01/16 05:36:17;;;;;;;11.88;6.88;;;;;;;3.94;95.47;97622.28;5093728;28;20396;-80
2024/01/16 05:38:43;;;;;;;12.70;6.78;;;;;;;3.90;96.52;97626.28;5092310;28;20031;-82
2024/01/16 05:41:09;;;;;;;21.45;10.45;;;;;;;4.32;98.78;97680.16;5092203;28;20026;-80
2024/01/16 05:43:34;;;;;;;16.60;7.53;;;;;;;4.43;99.20;97686.19;5093610;28;20118;-79
2024/01/16 05:46:00;;;;;;;9.73;6.35;;;;;;;4.10;98.62;97644.22;5092271;28;20020;-80
2024/01/16 05:48:26;;;;;;;7.15;5.30;;;;;;;4.46;99.22;97679.13;5093437;28;20099;-80
2024/01/16 05:50:51;;;;;;;13.85;8.35;;;;;;;4.30;99.72;97621.59;5093538;28;20536;-80
2024/01/16 05:53:17;;;;;;;16.60;10.20;;;;;;;4.79;99.17;97691.72;5091858;28;20031;-80
2024/01/16 05:55:42;;;;;;;18.63;10.80;;;;;;;5.27;98.07;97725.91;5092171;28;20472;-79
2024/01/16 05:58:08;;;;;;;13.63;7.30;;;;;;;4.71;97.22;97645.75;5093611;28;20407;-79
2024/01/16 06:00:34;;;;;;;32.20;17.30;;;;;;;4.99;96.73;97690.94;5091846;28;20032;-80
2024/01/16 06:02:59;;;;;;;52.88;26.80;;;;;;;4.80;95.85;97654.19;5093542;28;20031;-80
2024/01/16 06:05:25;;;;;;;34.58;21.05;;;;;;;5.01;95.86;97686.56;5091280;28;20419;-80
2024/01/16 06:07:50;;;;;;;32.63;17.67;;;;;;;5.11;96.39;97702.00;5091850;28;20131;-80
2024/01/16 06:10:16;;;;;;;30.23;14.50;;;;;;;5.49;95.94;97770.78;5093172;28;20085;-80
2024/01/16 06:12:42;;;;;;;34.05;17.80;;;;;;;4.89;95.37;97679.00;5091638;28;20032;-81
2024/01/16 06:15:07;;;;;;;28.30;16.90;;;;;;;5.53;94.44;97760.53;5102335;28;20102;-80
2024/01/16 06:17:33;;;;;;;28.60;15.52;;;;;;;5.47;94.61;97766.94;5091540;28;20024;-82
2024/01/16 06:19:59;;;;;;;36.20;18.17;;;;;;;5.40;94.52;97776.09;5091622;28;20457;-81
2024/01/16 06:22:24;;;;;;;24.02;12.00;;;;;;;5.44;95.41;97795.16;5091370;28;20175;-78
2024/01/16 06:24:50;;;;;;;54.88;23.75;;;;;;;5.45;95.04;97785.75;5085977;28;20020;-83
2024/01/16 06:27:18;;;;;;;52.40;26.67;;;;;;;5.78;94.43;97828.50;5082802;28;20484;-80
2024/01/16 06:29:53;;;;;;;32.42;16.15;;;;;;;5.54;94.48;97784.00;5091038;28;20028;-78
2024/01/16 06:32:19;;;;;;;39.17;17.30;;;;;;;5.72;94.23;97822.75;5090745;28;20027;-80
2024/01/16 06:34:44;;;;;;;19.63;9.25;;;;;;;5.55;93.63;97796.47;5091902;28;20028;-78
2024/01/16 06:37:10;;;;;;;16.55;8.05;;;;;;;5.72;93.80;97819.22;5090562;28;20032;-78
2024/01/16 06:39:36;;;;;;;101.32;31.80;;;;;;;5.63;94.80;97822.53;5090531;28;20173;-79
2024/01/16 06:42:04;;;;;;;52.03;19.27;;;;;;;5.70;94.70;97841.56;5091074;28;20028;-78
2024/01/16 06:44:29;;;;;;;92.63;31.90;;;;;;;5.74;94.76;97850.47;5090847;28;20056;-79
2024/01/16 06:46:55;;;;;;;91.20;32.33;;;;;;;5.47;95.04;97824.47;5092190;28;20120;-77
2024/01/16 06:49:20;;;;;;;175.73;57.60;;;;;;;5.88;95.08;97878.81;5092211;28;20035;-77
2024/01/16 06:51:46;;;;;;;75.57;31.55;;;;;;;5.79;93.87;97875.88;5090434;28;20028;-79
2024/01/16 06:54:11;;;;;;;50.30;21.08;;;;;;;5.73;92.80;97856.38;5090409;28;20571;-79
2024/01/16 06:56:37;;;;;;;29.15;13.80;;;;;;;6.16;89.32;97907.56;5092272;28;20034;-78
2024/01/16 06:59:02;;;;;;;57.55;21.40;;;;;;;6.16;86.50;97905.59;5091856;28;20035;-80
2024/01/16 07:01:28;;;;;;;47.45;19.83;;;;;;;6.24;83.92;97904.25;5091177;28;20035;-79
2024/01/16 07:03:54;;;;;;;82.35;37.05;;;;;;;6.39;82.23;97943.09;5091549;28;20032;-78
2024/01/16 07:06:19;;;;;;;51.50;25.13;;;;;;;6.46;81.43;97940.94;5090358;28;20115;-80
2024/01/16 07:08:45;;;;;;;36.92;19.13;;;;;;;6.78;81.10;97967.66;5089409;28;20036;-80
2024/01/16 07:11:13;;;;;;;21.88;11.55;;;;;;;6.79;79.67;97969.19;5090180;28;20004;-77
2024/01/16 07:13:39;;;;;;;16.63;10.63;;;;;;;6.72;75.92;97961.13;5090930;28;20107;-80
2024/01/16 07:16:05;;;;;;;11.55;7.40;;;;;;;6.78;73.41;97972.38;5090457;28;20107;-80
2024/01/16 07:18:30;;;;;;;6.50;5.38;;;;;;;5.91;72.36;97856.78;5089986;28;20034;-79
2024/01/16 07:20:55;;;;;;;13.93;8.73;;;;;;;6.82;75.41;98015.00;5089629;28;20019;-78
2024/01/16 07:23:21;;;;;;;15.98;9.02;;;;;;;6.85;74.82;98024.38;5074668;28;20502;-82
2024/01/16 07:25:46;;;;;;;9.80;6.43;;;;;;;6.78;72.84;98032.78;5089747;28;20414;-82
2024/01/16 07:28:12;;;;;;;9.80;6.90;;;;;;;6.78;71.21;98049.25;5089228;28;20026;-78
2024/01/16 07:30:38;;;;;;;5.03;4.13;;;;;;;6.62;70.23;98021.78;5089361;28;20499;-80
2024/01/16 07:33:04;;;;;;;13.80;8.90;;;;;;;6.73;70.46;98047.00;5090666;28;20020;-78
2024/01/16 07:35:29;;;;;;;9.77;5.65;;;;;;;6.70;70.88;98054.09;5090797;28;20553;-78
2024/01/16 07:37:55;;;;;;;9.30;6.53;;;;;;;6.51;70.21;98038.44;5090711;28;20039;-80
2024/01/16 07:40:20;;;;;;;9.50;5.78;;;;;;;6.38;70.46;98026.59;5089557;28;20027;-80
2024/01/16 07:42:46;;;;;;;11.07;7.85;;;;;;;6.29;70.53;98020.91;5090768;28;20022;-78
2024/01/16 07:45:12;;;;;;;4.68;3.47;;;;;;;6.15;71.06;98011.00;5091113;28;20032;-78
2024/01/16 07:47:37;;;;;;;4.05;3.55;;;;;;;6.50;70.51;98078.09;5090988;28;20099;-80
2024/01/16 07:50:03;;;;;;;11.38;7.78;;;;;;;5.86;68.70;97966.91;5090055;28;20589;-78
2024/01/16 07:52:29;;;;;;;8.63;6.93;;;;;;;6.62;68.32;98090.38;5090865;28;20063;-78
2024/01/16 07:54:54;;;;;;;14.73;8.13;;;;;;;6.67;67.04;98109.09;5090516;28;20083;-79
2024/01/16 07:57:20;;;;;;;26.25;13.95;;;;;;;6.24;66.82;98048.84;5090649;28;20063;-79
2024/01/16 07:59:46;;;;;;;9.05;7.07;;;;;;;6.49;65.80;98126.72;5089674;28;20487;-78
2024/01/16 08:02:11;;;;;;;4.60;3.60;;;;;;;6.40;65.77;98107.28;5089670;28;20120;-79
2024/01/16 08:04:37;;;;;;;6.72;5.00;;;;;;;5.91;65.19;98037.72;5090925;28;20024;-79
2024/01/16 08:07:03;;;;;;;4.65;4.13;;;;;;;6.40;64.42;98110.03;5082511;28;20064;-78
2024/01/16 08:09:28;;;;;;;4.88;3.83;;;;;;;6.67;65.02;98144.78;5084207;28;20506;-79
2024/01/16 08:11:54;;;;;;;5.38;3.47;;;;;;;6.20;62.92;98078.31;5089398;28;20381;-79
2024/01/16 08:14:19;;;;;;;7.63;4.47;;;;;;;6.57;62.65;98154.00;5089458;28;20031;-78
2024/01/16 08:16:45;;;;;;;11.25;6.60;;;;;;;6.56;62.30;98141.47;5093639;28;20406;-79
2024/01/16 08:19:10;;;;;;;3.22;2.30;;;;;;;6.67;61.20;98181.25;5093666;28;20051;-78
2024/01/16 08:21:36;;;;;;;18.83;9.70;;;;;;;6.24;62.23;98118.19;5094479;28;20028;-80
2024/01/16 08:24:02;;;;;;;107.75;31.88;;;;;;;6.69;61.28;98183.56;5094788;28;20020;-79
2024/01/16 08:26:28;;;;;;;51.60;16.45;;;;;;;6.65;60.20;98169.13;5094627;28;20031;-78
2024/01/16 08:28:54;;;;;;;136.82;35.47;;;;;;;6.77;59.63;98173.97;5093497;28;20046;-80
2024/01/16 08:31:19;;;;;;;165.32;46.08;;;;;;;6.81;60.11;98169.19;5094565;28;20020;-80
2024/01/16 08:33:45;;;;;;;171.15;49.22;;;;;;;6.84;59.36;98158.13;5094503;28;20539;-78
2024/01/16 08:36:11;;;;;;;75.18;25.35;;;;;;;6.87;58.24;98189.47;5093113;28;20043;-79
2024/01/16 08:38:36;;;;;;;59.50;19.38;;;;;;;6.18;58.21;98088.94;5094728;28;20024;-78
2024/01/16 08:41:06;;;;;;;36.83;14.68;;;;;;;6.83;58.14;98208.75;5079425;28;20476;-78
2024/01/16 08:43:31;;;;;;;26.80;11.25;;;;;;;6.63;57.20;98174.28;5093250;28;20061;-77
2024/01/16 08:45:57;;;;;;;10.88;5.30;;;;;;;6.61;56.06;98171.19;5093115;28;20012;-78
2024/01/16 08:48:22;;;;;;;18.55;8.13;;;;;;;6.89;56.03;98214.50;5094230;28;20099;-79
2024/01/16 08:50:48;;;;;;;15.70;5.63;;;;;;;6.94;54.79;98203.81;5091870;28;20502;-78
2024/01/16 08:53:13;;;;;;;19.10;6.75;;;;;;;6.73;53.93;98163.06;5092969;28;20471;-80
2024/01/16 08:55:39;;;;;;;26.00;7.85;;;;;;;7.24;54.00;98224.75;5093241;28;20529;-78
2024/01/16 08:58:04;;;;;;;19.98;5.28;;;;;;;6.93;53.98;98179.53;5093373;28;20024;-79
2024/01/16 09:00:29;;;;;;;29.05;7.25;;;;;;;7.25;53.83;98204.31;5093046;28;20081;-79
2024/01/16 09:02:55;;;;;;;33.72;7.43;;;;;;;7.40;54.18;98193.81;5094410;28;20111;-78
2024/01/16 09:05:25;;;;;;;18.60;5.15;;;;;;;7.76;57.74;98240.50;5093039;28;20032;-80
2024/01/16 09:07:50;;;;;;;31.25;7.38;;;;;;;7.25;56.14;98192.56;5093447;28;20028;-81
2024/01/16 09:10:17;;;;;;;25.23;6.05;;;;;;;7.71;57.22;98236.28;5088838;28;20055;-78
2024/01/16 09:12:42;;;;;;;30.45;7.20;;;;;;;7.74;56.88;98234.63;5086469;28;20062;-80
2024/01/16 09:15:08;;;;;;;20.27;5.20;;;;;;;7.82;56.09;98244.28;5094056;28;20020;-78
2024/01/16 09:17:34;;;;;;;27.10;6.03;;;;;;;8.04;55.27;98274.78;5092862;28;20480;-78
2024/01/16 09:20:00;;;;;;;17.85;5.30;;;;;;;7.89;53.33;98227.59;5092515;28;20023;-78
2024/01/16 09:22:25;;;;;;;19.48;5.95;;;;;;;8.20;53.60;98238.25;5092797;28;20031;-78
2024/01/16 09:24:51;;;;;;;5.60;2.30;;;;;;;8.09;49.94;98246.75;5091971;28;20020;-78
2024/01/16 09:27:16;;;;;;;5.32;2.60;;;;;;;7.60;49.71;98189.00;5092279;28;20028;-78
2024/01/16 09:29:42;;;;;;;1.30;1.20;;;;;;;7.91;47.90;98258.19;5092333;28;20024;-78
2024/01/16 09:32:07;;;;;;;1.27;1.10;;;;;;;7.94;47.02;98242.81;5093658;28;20408;-81
2024/01/16 09:34:33;;;;;;;4.00;3.60;;;;;;;8.16;47.17;98280.38;5092352;28;20036;-78
2024/01/16 09:37:00;;;;;;;3.00;2.10;;;;;;;7.99;47.32;98267.06;5092097;28;20032;-78
2024/01/16 09:39:26;;;;;;;2.28;1.98;;;;;;;8.18;46.58;98294.50;5092181;28;20024;-78
2024/01/16 09:41:52;;;;;;;4.45;2.88;;;;;;;8.04;47.17;98274.78;5092039;28;20427;-79
2024/01/16 09:44:17;;;;;;;2.05;1.70;;;;;;;8.13;47.39;98306.00;5091918;28;20024;-78
2024/01/16 09:46:47;;;;;;;3.25;1.73;;;;;;;7.94;48.66;98279.34;5091292;28;20028;-78
2024/01/16 09:49:15;;;;;;;2.15;2.00;;;;;;;8.09;46.69;98304.53;5092448;28;20039;-78
2024/01/16 09:51:43;;;;;;;4.00;1.55;;;;;;;7.51;45.42;98259.53;5093037;28;20051;-79
2024/01/16 09:54:08;;;;;;;1.55;1.05;;;;;;;7.42;46.14;98251.06;5091687;28;20063;-78
2024/01/16 09:56:39;;;;;;;1.17;1.08;;;;;;;7.61;47.15;98297.75;5090367;28;20080;-78
2024/01/16 09:59:06;;;;;;;1.15;1.15;;;;;;;7.42;46.46;98249.09;5089883;28;20432;-80
2024/01/16 10:01:33;;;;;;;1.25;1.15;;;;;;;7.68;46.08;98321.59;5091642;28;20028;-80
2024/01/16 10:03:58;;;;;;;3.67;2.35;;;;;;;7.76;46.53;98348.50;5090635;28;20035;-78
2024/01/16 10:06:27;;;;;;;2.35;2.13;;;;;;;7.71;45.69;98324.28;5090437;28;20032;-78
2024/01/16 10:08:52;;;;;;;1.67;1.58;;;;;;;7.57;46.06;98310.81;5089900;28;20089;-78
2024/01/16 10:11:18;;;;;;;0.80;0.80;;;;;;;7.70;44.96;98322.72;5091539;28;20454;-79
2024/01/16 10:13:44;;;;;;;2.13;1.42;;;;;;;7.79;45.13;98313.88;5091131;28;20490;-78
2024/01/16 10:16:10;;;;;;;1.20;1.00;;;;;;;7.89;45.14;98328.59;5092842;28;20058;-78
2024/01/16 10:18:37;;;;;;;1.42;0.95;;;;;;;7.74;44.11;98295.13;5091805;28;20020;-78
2024/01/16 10:21:03;;;;;;;2.50;1.48;;;;;;;8.24;45.54;98354.50;5092520;28;20047;-80
2024/01/16 10:23:32;;;;;;;1.80;1.60;;;;;;;8.19;45.50;98309.03;5086515;28;20172;-79
2024/01/16 10:26:07;;;;;;;3.45;2.13;;;;;;;8.48;46.12;98342.16;5082930;28;20028;-79
2024/01/16 10:28:36;;;;;;;2.53;1.92;;;;;;;8.30;45.69;98323.31;5086937;28;20028;-78
2024/01/16 10:31:06;;;;;;;2.47;1.20;;;;;;;8.26;45.21;98327.34;5091216;28;20395;-79
2024/01/16 10:33:32;;;;;;;2.15;1.50;;;;;;;8.32;44.32;98337.41;5086491;28;20031;-81
2024/01/16 10:36:12;;;;;;;3.33;1.60;;;;;;;8.60;45.00;98357.22;5077397;28;20025;-79
2024/01/16 10:38:43;;;;;;;2.47;1.45;;;;;;;8.42;45.22;98333.66;5090855;28;20110;-81
2024/01/16 10:41:11;;;;;;;2.88;1.67;;;;;;;8.46;45.13;98363.84;5079993;28;20093;-83
2024/01/16 10:43:40;;;;;;;5.95;1.52;;;;;;;8.56;45.36;98366.31;5087861;28;20036;-78
2024/01/16 10:46:15;;;;;;;1.00;0.80;;;;;;;8.50;45.66;98361.75;5088839;28;20484;-79
2024/01/16 10:48:58;;;;;;;1.08;0.85;;;;;;;8.34;44.50;98331.47;5089577;28;20419;-79
2024/01/16 10:51:25;;;;;;;0.82;0.70;;;;;;;8.31;44.58;98344.16;5076017;28;20072;-80
2024/01/16 10:53:55;;;;;;;0.90;0.68;;;;;;;8.38;43.36;98341.19;5083822;28;20063;-79
2024/01/16 10:56:21;;;;;;;1.00;0.80;;;;;;;8.09;43.07;98324.56;5085897;28;20553;-79
2024/01/16 10:58:54;;;;;;;1.10;0.70;;;;;;;7.85;42.97;98305.88;5087658;28;20040;-80
2024/01/16 11:01:20;;;;;;;0.68;0.60;;;;;;;7.74;43.34;98311.63;5078429;28;20024;-79
2024/01/16 11:03:50;;;;;;;0.60;0.60;;;;;;;7.57;42.97;98288.06;5073500;28;20492;-79
2024/01/16 11:06:17;;;;;;;0.57;0.57;;;;;;;7.54;42.50;98335.63;5088172;28;20036;-79
2024/01/16 11:08:47;;;;;;;1.07;0.60;;;;;;;7.57;43.61;98329.28;5084823;28;20134;-80
2024/01/16 11:11:13;;;;;;;1.15;1.05;;;;;;;7.68;43.75;98338.84;5088622;28;20027;-80
2024/01/16 11:13:41;;;;;;;1.23;0.68;;;;;;;7.58;42.87;98308.84;5086410;28;20024;-79
2024/01/16 11:16:10;;;;;;;0.60;0.60;;;;;;;7.34;43.23;98313.69;5079504;28;20029;-80
2024/01/16 11:18:36;;;;;;;0.60;0.60;;;;;;;7.47;43.81;98333.81;5089770;28;20067;-79
2024/01/16 11:21:04;;;;;;;0.77;0.75;;;;;;;7.50;44.05;98312.94;5087414;28;20064;-80
2024/01/16 11:23:31;;;;;;;0.88;0.65;;;;;;;7.72;44.23;98316.78;5072292;28;20077;-80
2024/01/16 11:25:56;;;;;;;0.60;0.60;;;;;;;7.82;43.14;98324.03;5089614;28;20051;-79